sensor_id;sensor_type;location;lat;lon;timestamp;temperature;humidity
19898;DHT22;10111;50.814;4.572;2023-04-24T00:00:21;11.30;99.90
19898;DHT22;10111;50.814;4.572;2023-04-24T00:02:46;11.20;99.90
19898;DHT22;10111;50.814;4.572;2023-04-24T00:05:14;11.30;99.90
19898;DHT22;10111;50.814;4.572;2023-04-24T00:07:41;11.30;99.90
19898;DHT22;10111;50.814;4.572;2023-04-24T00:10:08;11.20;99.90
19898;DHT22;10111;50.814;4.572;2023-04-24T00:12:34;11.10;99.90
19898;DHT22;10111;50.814;4.572;2023-04-24T00:15:00;11.20;99.90
19898;DHT22;10111;50.814;4.572;2023-04-24T00:17:26;11.20;99.90
19898;DHT22;10111;50.814;4.572;2023-04-24T00:19:51;11.00;99.90
19898;DHT22;10111;50.814;4.572;2023-04-24T00:22:24;11.10;99.90
19898;DHT22;10111;50.814;4.572;2023-04-24T00:24:49;11.10;99.90
19898;DHT22;10111;50.814;4.572;2023-04-24T00:27:15;11.20;99.90
19898;DHT22;10111;50.814;4.572;2023-04-24T00:29:41;11.10;99.90
19898;DHT22;10111;50.814;4.572;2023-04-24T00:32:06;11.00;99.90
19898;DHT22;10111;50.814;4.572;2023-04-24T00:34:32;11.00;99.90
19898;DHT22;10111;50.814;4.572;2023-04-24T00:36:58;11.00;99.90
19898;DHT22;10111;50.814;4.572;2023-04-24T00:39:24;11.00;99.90
19898;DHT22;10111;50.814;4.572;2023-04-24T00:41:50;11.10;99.90
19898;DHT22;10111;50.814;4.572;2023-04-24T00:44:16;11.10;99.90
19898;DHT22;10111;50.814;4.572;2023-04-24T00:46:42;11.20;99.90
19898;DHT22;10111;50.814;4.572;2023-04-24T00:49:08;11.10;99.90
19898;DHT22;10111;50.814;4.572;2023-04-24T00:51:34;11.10;99.90
19898;DHT22;10111;50.814;4.572;2023-04-24T00:54:00;11.20;99.90
19898;DHT22;10111;50.814;4.572;2023-04-24T00:56:26;11.20;99.90
19898;DHT22;10111;50.814;4.572;2023-04-24T00:58:52;11.20;99.90
19898;DHT22;10111;50.814;4.572;2023-04-24T01:01:21;11.10;99.90
19898;DHT22;10111;50.814;4.572;2023-04-24T01:03:49;11.10;99.90
19898;DHT22;10111;50.814;4.572;2023-04-24T01:06:16;11.10;99.90
19898;DHT22;10111;50.814;4.572;2023-04-24T01:08:43;11.10;99.90
19898;DHT22;10111;50.814;4.572;2023-04-24T01:11:10;11.10;99.90
19898;DHT22;10111;50.814;4.572;2023-04-24T01:13:36;11.20;99.90
19898;DHT22;10111;50.814;4.572;2023-04-24T01:16:02;11.10;99.90
19898;DHT22;10111;50.814;4.572;2023-04-24T01:18:27;11.20;99.90
19898;DHT22;10111;50.814;4.572;2023-04-24T01:20:57;11.30;99.90
19898;DHT22;10111;50.814;4.572;2023-04-24T01:23:23;11.20;99.90
19898;DHT22;10111;50.814;4.572;2023-04-24T01:25:49;11.20;99.90
19898;DHT22;10111;50.814;4.572;2023-04-24T01:28:16;11.00;99.90
19898;DHT22;10111;50.814;4.572;2023-04-24T01:30:42;10.90;99.90
19898;DHT22;10111;50.814;4.572;2023-04-24T01:33:08;10.80;99.90
19898;DHT22;10111;50.814;4.572;2023-04-24T01:35:33;10.70;99.90
19898;DHT22;10111;50.814;4.572;2023-04-24T01:38:01;10.70;99.90
19898;DHT22;10111;50.814;4.572;2023-04-24T01:40:27;10.70;99.90
19898;DHT22;10111;50.814;4.572;2023-04-24T01:42:53;10.70;99.90
19898;DHT22;10111;50.814;4.572;2023-04-24T01:45:19;10.50;99.90
19898;DHT22;10111;50.814;4.572;2023-04-24T01:47:45;10.40;99.90
19898;DHT22;10111;50.814;4.572;2023-04-24T01:50:12;10.50;99.90
19898;DHT22;10111;50.814;4.572;2023-04-24T01:52:38;10.40;99.90
19898;DHT22;10111;50.814;4.572;2023-04-24T01:55:04;10.30;99.90
19898;DHT22;10111;50.814;4.572;2023-04-24T01:57:31;10.30;99.90
19898;DHT22;10111;50.814;4.572;2023-04-24T01:59:57;10.40;99.90
19898;DHT22;10111;50.814;4.572;2023-04-24T02:02:23;10.30;99.90
19898;DHT22;10111;50.814;4.572;2023-04-24T02:04:55;10.30;99.90
19898;DHT22;10111;50.814;4.572;2023-04-24T02:07:21;10.30;99.90
19898;DHT22;10111;50.814;4.572;2023-04-24T02:09:47;10.30;99.90
19898;DHT22;10111;50.814;4.572;2023-04-24T02:12:13;10.10;99.90
19898;DHT22;10111;50.814;4.572;2023-04-24T02:14:39;10.10;99.90
19898;DHT22;10111;50.814;4.572;2023-04-24T02:17:05;10.00;99.90
19898;DHT22;10111;50.814;4.572;2023-04-24T02:19:31;10.00;99.90
19898;DHT22;10111;50.814;4.572;2023-04-24T02:21:56;10.20;99.90
19898;DHT22;10111;50.814;4.572;2023-04-24T02:24:22;10.20;99.90
19898;DHT22;10111;50.814;4.572;2023-04-24T02:26:48;10.20;99.90
19898;DHT22;10111;50.814;4.572;2023-04-24T02:29:13;10.30;99.90
19898;DHT22;10111;50.814;4.572;2023-04-24T02:31:40;10.30;99.90
19898;DHT22;10111;50.814;4.572;2023-04-24T02:34:05;10.40;99.90
19898;DHT22;10111;50.814;4.572;2023-04-24T02:36:31;10.30;99.90
19898;DHT22;10111;50.814;4.572;2023-04-24T02:38:57;10.30;99.90
19898;DHT22;10111;50.814;4.572;2023-04-24T02:41:22;10.30;99.90
19898;DHT22;10111;50.814;4.572;2023-04-24T02:43:48;10.30;99.90
19898;DHT22;10111;50.814;4.572;2023-04-24T02:46:14;10.30;99.90
19898;DHT22;10111;50.814;4.572;2023-04-24T02:48:40;10.30;99.90
19898;DHT22;10111;50.814;4.572;2023-04-24T02:51:05;10.40;99.90
19898;DHT22;10111;50.814;4.572;2023-04-24T02:53:32;10.50;99.90
19898;DHT22;10111;50.814;4.572;2023-04-24T02:55:58;10.40;99.90
19898;DHT22;10111;50.814;4.572;2023-04-24T02:58:24;10.40;99.90
19898;DHT22;10111;50.814;4.572;2023-04-24T03:00:53;10.40;99.90
19898;DHT22;10111;50.814;4.572;2023-04-24T03:03:19;10.50;99.90
19898;DHT22;10111;50.814;4.572;2023-04-24T03:05:45;10.40;99.90
19898;DHT22;10111;50.814;4.572;2023-04-24T03:08:11;10.50;99.90
19898;DHT22;10111;50.814;4.572;2023-04-24T03:10:37;10.40;99.90
19898;DHT22;10111;50.814;4.572;2023-04-24T03:13:02;10.30;99.90
19898;DHT22;10111;50.814;4.572;2023-04-24T03:15:28;10.30;99.90
19898;DHT22;10111;50.814;4.572;2023-04-24T03:17:54;10.20;99.90
19898;DHT22;10111;50.814;4.572;2023-04-24T03:20:20;10.30;99.90
19898;DHT22;10111;50.814;4.572;2023-04-24T03:22:46;10.20;99.90
19898;DHT22;10111;50.814;4.572;2023-04-24T03:25:12;10.20;99.90
19898;DHT22;10111;50.814;4.572;2023-04-24T03:27:38;10.20;99.90
19898;DHT22;10111;50.814;4.572;2023-04-24T03:30:08;10.20;99.90
19898;DHT22;10111;50.814;4.572;2023-04-24T03:32:34;10.20;99.90
19898;DHT22;10111;50.814;4.572;2023-04-24T03:34:59;10.20;99.90
19898;DHT22;10111;50.814;4.572;2023-04-24T03:37:25;10.10;99.90
19898;DHT22;10111;50.814;4.572;2023-04-24T03:39:51;10.20;99.90
19898;DHT22;10111;50.814;4.572;2023-04-24T03:42:17;10.10;99.90
19898;DHT22;10111;50.814;4.572;2023-04-24T03:44:43;10.20;99.90
19898;DHT22;10111;50.814;4.572;2023-04-24T03:47:09;10.30;99.90
19898;DHT22;10111;50.814;4.572;2023-04-24T03:49:35;10.20;99.90
19898;DHT22;10111;50.814;4.572;2023-04-24T03:52:01;10.10;99.90
19898;DHT22;10111;50.814;4.572;2023-04-24T03:54:27;10.20;99.90
19898;DHT22;10111;50.814;4.572;2023-04-24T03:56:53;10.10;99.90
19898;DHT22;10111;50.814;4.572;2023-04-24T03:59:18;10.10;99.90
19898;DHT22;10111;50.814;4.572;2023-04-24T04:01:44;9.90;99.90
19898;DHT22;10111;50.814;4.572;2023-04-24T04:04:11;9.90;99.90
19898;DHT22;10111;50.814;4.572;2023-04-24T04:06:38;9.90;99.90
19898;DHT22;10111;50.814;4.572;2023-04-24T04:09:03;9.80;99.90
19898;DHT22;10111;50.814;4.572;2023-04-24T04:11:29;9.90;99.90
19898;DHT22;10111;50.814;4.572;2023-04-24T04:13:55;10.00;99.90
19898;DHT22;10111;50.814;4.572;2023-04-24T04:16:22;10.00;99.90
19898;DHT22;10111;50.814;4.572;2023-04-24T04:18:48;9.90;99.90
19898;DHT22;10111;50.814;4.572;2023-04-24T04:21:14;9.90;99.90
19898;DHT22;10111;50.814;4.572;2023-04-24T04:23:39;9.80;99.90
19898;DHT22;10111;50.814;4.572;2023-04-24T04:26:05;9.80;99.90
19898;DHT22;10111;50.814;4.572;2023-04-24T04:28:32;9.90;99.90
19898;DHT22;10111;50.814;4.572;2023-04-24T04:30:57;10.00;99.90
19898;DHT22;10111;50.814;4.572;2023-04-24T04:33:24;10.00;99.90
19898;DHT22;10111;50.814;4.572;2023-04-24T04:35:50;10.00;99.90
19898;DHT22;10111;50.814;4.572;2023-04-24T04:38:22;9.90;99.90
19898;DHT22;10111;50.814;4.572;2023-04-24T04:40:47;10.10;99.90
19898;DHT22;10111;50.814;4.572;2023-04-24T04:43:14;10.00;99.90
19898;DHT22;10111;50.814;4.572;2023-04-24T04:45:41;9.90;99.90
19898;DHT22;10111;50.814;4.572;2023-04-24T04:48:08;9.90;99.90
19898;DHT22;10111;50.814;4.572;2023-04-24T04:50:35;10.00;99.90
19898;DHT22;10111;50.814;4.572;2023-04-24T04:53:01;10.20;99.90
19898;DHT22;10111;50.814;4.572;2023-04-24T04:55:27;10.30;99.90
19898;DHT22;10111;50.814;4.572;2023-04-24T04:57:52;10.10;99.90
19898;DHT22;10111;50.814;4.572;2023-04-24T05:00:18;10.10;99.90
19898;DHT22;10111;50.814;4.572;2023-04-24T05:02:44;10.30;99.90
19898;DHT22;10111;50.814;4.572;2023-04-24T05:05:10;10.30;99.90
19898;DHT22;10111;50.814;4.572;2023-04-24T05:07:36;10.20;99.90
19898;DHT22;10111;50.814;4.572;2023-04-24T05:10:02;10.40;99.90
19898;DHT22;10111;50.814;4.572;2023-04-24T05:12:28;10.30;99.90
19898;DHT22;10111;50.814;4.572;2023-04-24T05:14:53;10.30;99.90
19898;DHT22;10111;50.814;4.572;2023-04-24T05:17:19;10.30;99.90
19898;DHT22;10111;50.814;4.572;2023-04-24T05:19:45;10.30;99.90
19898;DHT22;10111;50.814;4.572;2023-04-24T05:22:11;10.20;99.90
19898;DHT22;10111;50.814;4.572;2023-04-24T05:24:37;10.20;99.90
19898;DHT22;10111;50.814;4.572;2023-04-24T05:27:04;10.30;99.90
19898;DHT22;10111;50.814;4.572;2023-04-24T05:29:32;10.30;99.90
19898;DHT22;10111;50.814;4.572;2023-04-24T05:31:59;10.20;99.90
19898;DHT22;10111;50.814;4.572;2023-04-24T05:34:25;10.10;99.90
19898;DHT22;10111;50.814;4.572;2023-04-24T05:36:51;10.20;99.90
19898;DHT22;10111;50.814;4.572;2023-04-24T05:39:17;10.00;99.90
19898;DHT22;10111;50.814;4.572;2023-04-24T05:41:43;10.20;99.90
19898;DHT22;10111;50.814;4.572;2023-04-24T05:44:09;10.30;99.90
19898;DHT22;10111;50.814;4.572;2023-04-24T05:46:35;10.50;99.90
19898;DHT22;10111;50.814;4.572;2023-04-24T05:49:01;10.60;99.90
19898;DHT22;10111;50.814;4.572;2023-04-24T05:51:27;10.30;99.90
19898;DHT22;10111;50.814;4.572;2023-04-24T05:53:53;10.10;99.90
19898;DHT22;10111;50.814;4.572;2023-04-24T05:56:18;10.10;99.90
19898;DHT22;10111;50.814;4.572;2023-04-24T05:58:45;10.30;99.90
19898;DHT22;10111;50.814;4.572;2023-04-24T06:01:11;10.10;99.90
19898;DHT22;10111;50.814;4.572;2023-04-24T06:03:38;10.20;99.90
19898;DHT22;10111;50.814;4.572;2023-04-24T06:06:06;10.10;99.90
19898;DHT22;10111;50.814;4.572;2023-04-24T06:08:32;10.10;99.90
19898;DHT22;10111;50.814;4.572;2023-04-24T06:10:58;9.90;99.90
19898;DHT22;10111;50.814;4.572;2023-04-24T06:13:24;9.90;99.90
19898;DHT22;10111;50.814;4.572;2023-04-24T06:15:49;10.00;99.90
19898;DHT22;10111;50.814;4.572;2023-04-24T06:18:16;10.00;99.90
19898;DHT22;10111;50.814;4.572;2023-04-24T06:20:41;9.90;99.90
19898;DHT22;10111;50.814;4.572;2023-04-24T06:23:07;10.00;99.90
19898;DHT22;10111;50.814;4.572;2023-04-24T06:25:33;9.90;99.90
19898;DHT22;10111;50.814;4.572;2023-04-24T06:27:58;10.10;99.90
19898;DHT22;10111;50.814;4.572;2023-04-24T06:30:24;10.10;99.90
19898;DHT22;10111;50.814;4.572;2023-04-24T06:32:50;10.20;99.90
19898;DHT22;10111;50.814;4.572;2023-04-24T06:35:16;10.40;99.90
19898;DHT22;10111;50.814;4.572;2023-04-24T06:37:42;10.20;99.90
19898;DHT22;10111;50.814;4.572;2023-04-24T06:40:09;10.40;99.90
19898;DHT22;10111;50.814;4.572;2023-04-24T06:42:35;10.40;99.90
19898;DHT22;10111;50.814;4.572;2023-04-24T06:45:01;10.20;99.90
19898;DHT22;10111;50.814;4.572;2023-04-24T06:47:27;10.10;99.90
19898;DHT22;10111;50.814;4.572;2023-04-24T06:49:53;10.20;99.90
19898;DHT22;10111;50.814;4.572;2023-04-24T06:52:19;10.00;99.90
19898;DHT22;10111;50.814;4.572;2023-04-24T06:54:45;10.00;99.90
19898;DHT22;10111;50.814;4.572;2023-04-24T06:57:10;10.10;99.90
19898;DHT22;10111;50.814;4.572;2023-04-24T06:59:37;10.00;99.90
19898;DHT22;10111;50.814;4.572;2023-04-24T07:02:03;10.10;99.90
19898;DHT22;10111;50.814;4.572;2023-04-24T07:04:29;10.10;99.90
19898;DHT22;10111;50.814;4.572;2023-04-24T07:06:55;10.40;99.90
19898;DHT22;10111;50.814;4.572;2023-04-24T07:09:24;10.50;99.90
19898;DHT22;10111;50.814;4.572;2023-04-24T07:11:53;10.60;99.90
19898;DHT22;10111;50.814;4.572;2023-04-24T07:14:20;10.60;99.90
19898;DHT22;10111;50.814;4.572;2023-04-24T07:16:46;10.60;99.90
19898;DHT22;10111;50.814;4.572;2023-04-24T07:19:12;10.60;99.90
19898;DHT22;10111;50.814;4.572;2023-04-24T07:21:38;10.80;99.90
19898;DHT22;10111;50.814;4.572;2023-04-24T07:24:04;10.60;99.90
19898;DHT22;10111;50.814;4.572;2023-04-24T07:26:30;10.40;99.90
19898;DHT22;10111;50.814;4.572;2023-04-24T07:28:56;10.70;99.90
19898;DHT22;10111;50.814;4.572;2023-04-24T07:31:22;10.80;99.90
19898;DHT22;10111;50.814;4.572;2023-04-24T07:33:48;10.70;99.90
19898;DHT22;10111;50.814;4.572;2023-04-24T07:36:14;10.70;99.90
19898;DHT22;10111;50.814;4.572;2023-04-24T07:38:47;10.60;99.90
19898;DHT22;10111;50.814;4.572;2023-04-24T07:41:13;10.70;99.90
19898;DHT22;10111;50.814;4.572;2023-04-24T07:43:39;10.80;99.90
19898;DHT22;10111;50.814;4.572;2023-04-24T07:46:06;10.90;99.90
19898;DHT22;10111;50.814;4.572;2023-04-24T07:48:32;11.10;99.90
19898;DHT22;10111;50.814;4.572;2023-04-24T07:50:57;11.40;99.90
19898;DHT22;10111;50.814;4.572;2023-04-24T07:53:23;11.50;99.90
19898;DHT22;10111;50.814;4.572;2023-04-24T07:55:49;11.50;99.90
19898;DHT22;10111;50.814;4.572;2023-04-24T07:58:14;11.90;99.90
19898;DHT22;10111;50.814;4.572;2023-04-24T08:00:40;12.00;99.90
19898;DHT22;10111;50.814;4.572;2023-04-24T08:03:06;12.20;99.90
19898;DHT22;10111;50.814;4.572;2023-04-24T08:05:31;12.00;99.90
19898;DHT22;10111;50.814;4.572;2023-04-24T08:07:58;11.90;99.90
19898;DHT22;10111;50.814;4.572;2023-04-24T08:10:25;11.70;99.90
19898;DHT22;10111;50.814;4.572;2023-04-24T08:12:51;11.50;99.90
19898;DHT22;10111;50.814;4.572;2023-04-24T08:15:17;11.50;99.90
19898;DHT22;10111;50.814;4.572;2023-04-24T08:17:42;11.30;99.90
19898;DHT22;10111;50.814;4.572;2023-04-24T08:20:10;11.50;99.90
19898;DHT22;10111;50.814;4.572;2023-04-24T08:22:42;11.80;99.90
19898;DHT22;10111;50.814;4.572;2023-04-24T08:25:09;11.90;99.90
19898;DHT22;10111;50.814;4.572;2023-04-24T08:27:35;11.70;99.90
19898;DHT22;10111;50.814;4.572;2023-04-24T08:30:03;11.60;99.90
19898;DHT22;10111;50.814;4.572;2023-04-24T08:32:28;11.60;99.90
19898;DHT22;10111;50.814;4.572;2023-04-24T08:34:55;11.70;99.90
19898;DHT22;10111;50.814;4.572;2023-04-24T08:37:22;11.70;99.90
19898;DHT22;10111;50.814;4.572;2023-04-24T08:39:49;12.00;99.90
19898;DHT22;10111;50.814;4.572;2023-04-24T08:42:16;12.20;99.90
19898;DHT22;10111;50.814;4.572;2023-04-24T08:44:42;12.20;99.90
19898;DHT22;10111;50.814;4.572;2023-04-24T08:47:08;12.30;99.90
19898;DHT22;10111;50.814;4.572;2023-04-24T08:49:36;12.40;99.90
19898;DHT22;10111;50.814;4.572;2023-04-24T08:52:02;12.60;99.90
19898;DHT22;10111;50.814;4.572;2023-04-24T08:54:28;12.90;99.90
19898;DHT22;10111;50.814;4.572;2023-04-24T08:57:00;13.00;99.90
19898;DHT22;10111;50.814;4.572;2023-04-24T08:59:27;13.10;99.90
19898;DHT22;10111;50.814;4.572;2023-04-24T09:01:53;13.20;99.90
19898;DHT22;10111;50.814;4.572;2023-04-24T09:04:20;13.30;99.90
19898;DHT22;10111;50.814;4.572;2023-04-24T09:06:48;13.60;99.90
19898;DHT22;10111;50.814;4.572;2023-04-24T09:09:16;13.70;99.90
19898;DHT22;10111;50.814;4.572;2023-04-24T09:11:42;14.10;99.90
19898;DHT22;10111;50.814;4.572;2023-04-24T09:14:09;14.10;99.90
19898;DHT22;10111;50.814;4.572;2023-04-24T09:16:36;13.80;99.90
19898;DHT22;10111;50.814;4.572;2023-04-24T09:19:01;13.70;99.90
19898;DHT22;10111;50.814;4.572;2023-04-24T09:21:32;13.50;99.90
19898;DHT22;10111;50.814;4.572;2023-04-24T09:24:00;13.60;99.90
19898;DHT22;10111;50.814;4.572;2023-04-24T09:26:31;13.70;99.90
19898;DHT22;10111;50.814;4.572;2023-04-24T09:28:58;13.90;99.90
19898;DHT22;10111;50.814;4.572;2023-04-24T09:31:24;14.20;99.90
19898;DHT22;10111;50.814;4.572;2023-04-24T09:33:56;14.30;99.90
19898;DHT22;10111;50.814;4.572;2023-04-24T09:36:33;14.40;99.90
19898;DHT22;10111;50.814;4.572;2023-04-24T09:39:01;14.60;99.90
19898;DHT22;10111;50.814;4.572;2023-04-24T09:41:27;14.70;99.90
19898;DHT22;10111;50.814;4.572;2023-04-24T09:43:55;14.40;99.90
19898;DHT22;10111;50.814;4.572;2023-04-24T09:46:21;14.00;99.90
19898;DHT22;10111;50.814;4.572;2023-04-24T09:48:47;13.70;99.90
19898;DHT22;10111;50.814;4.572;2023-04-24T09:51:13;13.70;99.90
19898;DHT22;10111;50.814;4.572;2023-04-24T09:53:45;13.60;99.90
19898;DHT22;10111;50.814;4.572;2023-04-24T09:56:11;13.30;99.90
19898;DHT22;10111;50.814;4.572;2023-04-24T09:58:40;13.40;99.90
19898;DHT22;10111;50.814;4.572;2023-04-24T10:01:06;13.60;99.90
19898;DHT22;10111;50.814;4.572;2023-04-24T10:03:35;13.70;99.90
19898;DHT22;10111;50.814;4.572;2023-04-24T10:06:03;13.80;99.90
19898;DHT22;10111;50.814;4.572;2023-04-24T10:08:34;13.90;99.90
19898;DHT22;10111;50.814;4.572;2023-04-24T10:11:01;14.00;99.90
19898;DHT22;10111;50.814;4.572;2023-04-24T10:13:28;14.00;99.90
19898;DHT22;10111;50.814;4.572;2023-04-24T10:15:54;13.80;99.90
19898;DHT22;10111;50.814;4.572;2023-04-24T10:18:21;13.80;99.90
19898;DHT22;10111;50.814;4.572;2023-04-24T10:20:47;13.60;99.90
19898;DHT22;10111;50.814;4.572;2023-04-24T10:23:14;13.60;99.90
19898;DHT22;10111;50.814;4.572;2023-04-24T10:25:40;13.60;99.90
19898;DHT22;10111;50.814;4.572;2023-04-24T10:28:06;13.60;99.90
19898;DHT22;10111;50.814;4.572;2023-04-24T10:30:34;13.70;99.90
19898;DHT22;10111;50.814;4.572;2023-04-24T10:33:04;13.60;99.90
19898;DHT22;10111;50.814;4.572;2023-04-24T10:35:40;13.60;99.90
19898;DHT22;10111;50.814;4.572;2023-04-24T10:38:11;13.80;99.90
19898;DHT22;10111;50.814;4.572;2023-04-24T10:40:37;13.90;99.90
19898;DHT22;10111;50.814;4.572;2023-04-24T10:43:04;13.90;99.90
19898;DHT22;10111;50.814;4.572;2023-04-24T10:45:33;13.80;99.90
19898;DHT22;10111;50.814;4.572;2023-04-24T10:48:02;13.40;99.90
19898;DHT22;10111;50.814;4.572;2023-04-24T10:51:14;13.30;99.90
19898;DHT22;10111;50.814;4.572;2023-04-24T10:53:20;13.10;99.90
19898;DHT22;10111;50.814;4.572;2023-04-24T10:55:51;13.00;99.90
19898;DHT22;10111;50.814;4.572;2023-04-24T10:58:23;13.10;99.90
19898;DHT22;10111;50.814;4.572;2023-04-24T11:00:59;13.40;99.90
19898;DHT22;10111;50.814;4.572;2023-04-24T11:03:33;13.50;99.90
19898;DHT22;10111;50.814;4.572;2023-04-24T11:08:32;13.60;99.90
19898;DHT22;10111;50.814;4.572;2023-04-24T11:11:12;13.90;99.90
19898;DHT22;10111;50.814;4.572;2023-04-24T11:16:31;14.20;99.90
19898;DHT22;10111;50.814;4.572;2023-04-24T11:19:09;14.20;99.90
19898;DHT22;10111;50.814;4.572;2023-04-24T11:21:40;14.00;99.90
19898;DHT22;10111;50.814;4.572;2023-04-24T11:24:27;13.90;99.90
19898;DHT22;10111;50.814;4.572;2023-04-24T11:27:17;14.10;99.90
19898;DHT22;10111;50.814;4.572;2023-04-24T11:32:40;13.90;99.90
19898;DHT22;10111;50.814;4.572;2023-04-24T11:35:16;13.80;99.90
19898;DHT22;10111;50.814;4.572;2023-04-24T11:37:47;13.80;99.90
19898;DHT22;10111;50.814;4.572;2023-04-24T11:40:15;13.90;99.90
19898;DHT22;10111;50.814;4.572;2023-04-24T11:42:43;14.10;99.90
19898;DHT22;10111;50.814;4.572;2023-04-24T11:45:23;14.20;99.90
19898;DHT22;10111;50.814;4.572;2023-04-24T11:47:49;14.20;99.90
19898;DHT22;10111;50.814;4.572;2023-04-24T11:50:17;14.30;99.90
19898;DHT22;10111;50.814;4.572;2023-04-24T11:52:45;14.40;99.90
19898;DHT22;10111;50.814;4.572;2023-04-24T11:57:42;14.50;99.90
19898;DHT22;10111;50.814;4.572;2023-04-24T12:00:24;14.60;99.90
19898;DHT22;10111;50.814;4.572;2023-04-24T12:02:51;14.70;99.90
19898;DHT22;10111;50.814;4.572;2023-04-24T12:05:25;14.80;99.90
19898;DHT22;10111;50.814;4.572;2023-04-24T12:07:51;14.70;99.90
19898;DHT22;10111;50.814;4.572;2023-04-24T12:10:24;14.50;99.90
19898;DHT22;10111;50.814;4.572;2023-04-24T12:12:51;14.50;99.90
19898;DHT22;10111;50.814;4.572;2023-04-24T12:15:18;14.50;99.90
19898;DHT22;10111;50.814;4.572;2023-04-24T12:17:44;14.60;99.90
19898;DHT22;10111;50.814;4.572;2023-04-24T12:20:11;14.40;99.90
19898;DHT22;10111;50.814;4.572;2023-04-24T12:22:45;14.60;99.90
19898;DHT22;10111;50.814;4.572;2023-04-24T12:25:11;14.90;99.90
19898;DHT22;10111;50.814;4.572;2023-04-24T12:27:37;15.10;99.90
19898;DHT22;10111;50.814;4.572;2023-04-24T12:30:05;15.20;99.90
19898;DHT22;10111;50.814;4.572;2023-04-24T12:32:31;15.30;99.90
19898;DHT22;10111;50.814;4.572;2023-04-24T12:34:57;15.40;99.90
19898;DHT22;10111;50.814;4.572;2023-04-24T12:37:24;15.20;99.90
19898;DHT22;10111;50.814;4.572;2023-04-24T12:42:27;14.90;99.90
19898;DHT22;10111;50.814;4.572;2023-04-24T12:45:03;14.50;99.90
19898;DHT22;10111;50.814;4.572;2023-04-24T12:47:31;14.40;99.90
19898;DHT22;10111;50.814;4.572;2023-04-24T12:49:57;14.30;99.90
19898;DHT22;10111;50.814;4.572;2023-04-24T12:52:23;14.40;99.90
19898;DHT22;10111;50.814;4.572;2023-04-24T12:54:50;14.50;99.90
19898;DHT22;10111;50.814;4.572;2023-04-24T12:57:17;14.70;99.90
19898;DHT22;10111;50.814;4.572;2023-04-24T12:59:43;14.80;99.90
19898;DHT22;10111;50.814;4.572;2023-04-24T13:02:10;14.90;99.90
19898;DHT22;10111;50.814;4.572;2023-04-24T13:04:36;15.20;99.90
19898;DHT22;10111;50.814;4.572;2023-04-24T13:07:02;15.50;99.90
19898;DHT22;10111;50.814;4.572;2023-04-24T13:09:27;15.70;99.90
19898;DHT22;10111;50.814;4.572;2023-04-24T13:11:53;15.90;99.90
19898;DHT22;10111;50.814;4.572;2023-04-24T13:14:19;15.90;99.90
19898;DHT22;10111;50.814;4.572;2023-04-24T13:16:45;15.80;99.90
19898;DHT22;10111;50.814;4.572;2023-04-24T13:19:11;15.60;99.90
19898;DHT22;10111;50.814;4.572;2023-04-24T13:21:36;15.50;99.90
19898;DHT22;10111;50.814;4.572;2023-04-24T13:24:02;15.50;99.90
19898;DHT22;10111;50.814;4.572;2023-04-24T13:26:30;15.40;99.90
19898;DHT22;10111;50.814;4.572;2023-04-24T13:28:56;15.30;99.90
19898;DHT22;10111;50.814;4.572;2023-04-24T13:31:21;15.30;99.90
19898;DHT22;10111;50.814;4.572;2023-04-24T13:33:47;15.30;99.90
19898;DHT22;10111;50.814;4.572;2023-04-24T13:36:13;15.20;99.90
19898;DHT22;10111;50.814;4.572;2023-04-24T13:38:39;15.20;99.90
19898;DHT22;10111;50.814;4.572;2023-04-24T13:41:05;15.20;99.90
19898;DHT22;10111;50.814;4.572;2023-04-24T13:43:30;15.30;99.90
19898;DHT22;10111;50.814;4.572;2023-04-24T13:45:56;15.40;99.90
19898;DHT22;10111;50.814;4.572;2023-04-24T13:48:22;15.50;99.90
19898;DHT22;10111;50.814;4.572;2023-04-24T13:50:47;15.60;99.90
19898;DHT22;10111;50.814;4.572;2023-04-24T13:53:15;15.50;99.90
19898;DHT22;10111;50.814;4.572;2023-04-24T13:55:40;15.50;99.90
19898;DHT22;10111;50.814;4.572;2023-04-24T13:58:07;15.50;99.90
19898;DHT22;10111;50.814;4.572;2023-04-24T14:00:33;15.20;99.90
19898;DHT22;10111;50.814;4.572;2023-04-24T14:02:58;15.10;99.90
19898;DHT22;10111;50.814;4.572;2023-04-24T14:05:24;15.00;99.90
19898;DHT22;10111;50.814;4.572;2023-04-24T14:07:50;14.90;99.90
19898;DHT22;10111;50.814;4.572;2023-04-24T14:10:16;14.90;99.90
19898;DHT22;10111;50.814;4.572;2023-04-24T14:12:42;15.00;99.90
19898;DHT22;10111;50.814;4.572;2023-04-24T14:15:08;15.00;99.90
19898;DHT22;10111;50.814;4.572;2023-04-24T14:17:34;14.90;99.90
19898;DHT22;10111;50.814;4.572;2023-04-24T14:20:00;14.80;99.90
19898;DHT22;10111;50.814;4.572;2023-04-24T14:22:26;14.60;99.90
19898;DHT22;10111;50.814;4.572;2023-04-24T14:24:51;14.50;99.90
19898;DHT22;10111;50.814;4.572;2023-04-24T14:27:17;14.50;99.90
19898;DHT22;10111;50.814;4.572;2023-04-24T14:29:43;14.60;99.90
19898;DHT22;10111;50.814;4.572;2023-04-24T14:32:10;14.80;99.90
19898;DHT22;10111;50.814;4.572;2023-04-24T14:34:36;14.80;99.90
19898;DHT22;10111;50.814;4.572;2023-04-24T14:37:02;14.80;99.90
19898;DHT22;10111;50.814;4.572;2023-04-24T14:39:28;14.80;99.90
19898;DHT22;10111;50.814;4.572;2023-04-24T14:41:54;14.90;99.90
19898;DHT22;10111;50.814;4.572;2023-04-24T14:44:20;14.90;99.90
19898;DHT22;10111;50.814;4.572;2023-04-24T14:46:48;14.70;99.90
19898;DHT22;10111;50.814;4.572;2023-04-24T14:49:13;14.60;99.90
19898;DHT22;10111;50.814;4.572;2023-04-24T14:51:39;14.60;99.90
19898;DHT22;10111;50.814;4.572;2023-04-24T14:54:06;14.60;99.90
19898;DHT22;10111;50.814;4.572;2023-04-24T14:56:32;14.40;99.90
19898;DHT22;10111;50.814;4.572;2023-04-24T14:58:57;14.50;99.90
19898;DHT22;10111;50.814;4.572;2023-04-24T15:01:23;14.50;99.90
19898;DHT22;10111;50.814;4.572;2023-04-24T15:03:49;14.50;99.90
19898;DHT22;10111;50.814;4.572;2023-04-24T15:06:15;14.60;99.90
19898;DHT22;10111;50.814;4.572;2023-04-24T15:08:41;14.80;99.90
19898;DHT22;10111;50.814;4.572;2023-04-24T15:11:08;14.90;99.90
19898;DHT22;10111;50.814;4.572;2023-04-24T15:13:34;14.80;99.90
19898;DHT22;10111;50.814;4.572;2023-04-24T15:16:00;14.80;99.90
19898;DHT22;10111;50.814;4.572;2023-04-24T15:18:26;14.80;99.90
19898;DHT22;10111;50.814;4.572;2023-04-24T15:20:53;14.90;99.90
19898;DHT22;10111;50.814;4.572;2023-04-24T15:23:19;14.90;99.90
19898;DHT22;10111;50.814;4.572;2023-04-24T15:25:44;14.90;99.90
19898;DHT22;10111;50.814;4.572;2023-04-24T15:28:10;14.80;99.90
19898;DHT22;10111;50.814;4.572;2023-04-24T15:30:36;15.00;99.90
19898;DHT22;10111;50.814;4.572;2023-04-24T15:33:02;14.80;99.90
19898;DHT22;10111;50.814;4.572;2023-04-24T15:35:28;14.90;99.90
19898;DHT22;10111;50.814;4.572;2023-04-24T15:37:53;14.90;99.90
19898;DHT22;10111;50.814;4.572;2023-04-24T15:40:19;14.80;99.90
19898;DHT22;10111;50.814;4.572;2023-04-24T15:42:45;14.90;99.90